Time;durP1;ratioP1;P1;durP2;ratioP2;P2;SDS_P1;SDS_P2;PMS_P1;PMS_P2;Temp;Humidity;BMP_temperature;BMP_pressure;BME280_temperature;BME280_humidity;BME280_pressure;Samples;Min_cycle;Max_cycle;Signal;HPM_P1;HPM_P2
2023/03/07 00:01:31;;;;;;;;;;;4.90;99.90;;;;;;5006597;28;19928;-69
2023/03/07 00:03:59;;;;;;;;;;;4.90;99.90;;;;;;4974299;28;20020;-68
2023/03/07 00:06:25;;;;;;;;;;;4.90;99.90;;;;;;4970742;28;20468;-69
2023/03/07 00:08:53;;;;;;;;;;;5.00;99.90;;;;;;4981772;28;19926;-68
2023/03/07 00:11:20;;;;;;;;;;;5.00;99.90;;;;;;4979222;28;19926;-69
2023/03/07 00:13:47;;;;;;;;;;;5.00;99.90;;;;;;4968922;28;20339;-68
2023/03/07 00:16:15;;;;;;;;;;;4.90;99.90;;;;;;4994276;28;19974;-68
2023/03/07 00:18:43;;;;;;;;;;;5.00;99.90;;;;;;4971821;28;20020;-68
2023/03/07 00:21:10;;;;;;;;;;;5.00;99.90;;;;;;4974829;28;20323;-68
2023/03/07 00:23:38;;;;;;;;;;;5.00;99.90;;;;;;4969093;28;19974;-68
2023/03/07 00:26:06;;;;;;;;;;;5.00;99.90;;;;;;4968573;28;19934;-68
2023/03/07 00:28:32;;;;;;;;;;;5.10;99.90;;;;;;4977282;28;20044;-69
2023/03/07 00:31:00;;;;;;;;;;;5.10;99.90;;;;;;4972364;28;19973;-69
2023/03/07 00:33:26;;;;;;;;;;;5.10;99.90;;;;;;4972716;28;19985;-68
2023/03/07 00:35:59;;;;;;;;;;;5.10;99.90;;;;;;4987895;28;20188;-68
2023/03/07 00:38:26;;;;;;;;;;;5.10;99.90;;;;;;4982764;28;20013;-69
2023/03/07 00:40:59;;;;;;;;;;;5.10;99.90;;;;;;4976662;28;20026;-68
2023/03/07 00:43:26;;;;;;;;;;;5.00;99.90;;;;;;4988453;28;20013;-68
2023/03/07 00:45:53;;;;;;;;;;;5.00;99.90;;;;;;4992413;28;19939;-67
2023/03/07 00:48:23;;;;;;;;;;;5.10;99.90;;;;;;4998785;28;19940;-68
2023/03/07 00:50:50;;;;;;;;;;;5.00;99.90;;;;;;4984965;28;20389;-68
2023/03/07 00:53:18;;;;;;;;;;;5.00;99.90;;;;;;5008168;28;19926;-68
2023/03/07 00:55:53;;;;;;;;;;;5.00;99.90;;;;;;4987686;28;19932;-68
2023/03/07 00:58:20;;;;;;;;;;;5.00;99.90;;;;;;4974952;28;20006;-68
2023/03/07 01:00:46;;;;;;;;;;;5.00;99.90;;;;;;4966090;28;19973;-68
2023/03/07 01:03:13;;;;;;;;;;;5.00;99.90;;;;;;4986032;28;19988;-68
2023/03/07 01:05:40;;;;;;;;;;;5.00;99.90;;;;;;4977305;28;19956;-68
2023/03/07 01:08:07;;;;;;;;;;;5.00;99.90;;;;;;4971897;28;19926;-68
2023/03/07 01:10:35;;;;;;;;;;;5.00;99.90;;;;;;4983864;28;20359;-68
2023/03/07 01:13:02;;;;;;;;;;;5.00;99.90;;;;;;4980298;28;19934;-68
2023/03/07 01:15:29;;;;;;;;;;;5.10;99.90;;;;;;4971965;28;20012;-68
2023/03/07 01:17:55;;;;;;;;;;;5.10;99.90;;;;;;4974133;28;19958;-68
2023/03/07 01:20:22;;;;;;;;;;;5.10;99.90;;;;;;4960238;28;20369;-68
2023/03/07 01:22:49;;;;;;;;;;;5.00;99.90;;;;;;4968312;28;19957;-68
2023/03/07 01:25:16;;;;;;;;;;;5.00;99.90;;;;;;4975844;28;19980;-68
2023/03/07 01:27:44;;;;;;;;;;;5.00;99.90;;;;;;4967082;28;20017;-68
2023/03/07 01:30:11;;;;;;;;;;;5.00;99.90;;;;;;4980188;28;19976;-68
2023/03/07 01:32:38;;;;;;;;;;;5.00;99.90;;;;;;4980511;28;19926;-68
2023/03/07 01:35:05;;;;;;;;;;;5.00;99.90;;;;;;4972980;28;19965;-68
2023/03/07 01:37:32;;;;;;;;;;;5.00;99.90;;;;;;4968157;28;19995;-68
2023/03/07 01:39:59;;;;;;;;;;;4.90;99.90;;;;;;4971354;28;19933;-68
2023/03/07 01:42:29;;;;;;;;;;;4.90;99.90;;;;;;4974183;28;19924;-68
2023/03/07 01:45:02;;;;;;;;;;;4.90;99.90;;;;;;4986634;28;20012;-67
2023/03/07 01:47:29;;;;;;;;;;;4.90;99.90;;;;;;4976105;28;19925;-67
2023/03/07 01:49:56;;;;;;;;;;;4.90;99.90;;;;;;4976052;28;20005;-67
2023/03/07 01:52:25;;;;;;;;;;;4.90;99.90;;;;;;4976911;28;19932;-68
2023/03/07 01:54:54;;;;;;;;;;;4.90;99.90;;;;;;4974448;28;19925;-67
2023/03/07 01:57:23;;;;;;;;;;;4.90;99.90;;;;;;5027585;28;19924;-68
2023/03/07 01:59:51;;;;;;;;;;;4.90;99.90;;;;;;4978498;28;19926;-67
2023/03/07 02:02:21;;;;;;;;;;;4.90;99.90;;;;;;4960799;28;19929;-68
2023/03/07 02:04:50;;;;;;;;;;;4.90;99.90;;;;;;4973028;28;20301;-67
2023/03/07 02:07:20;;;;;;;;;;;4.90;99.90;;;;;;4955862;28;19934;-68
2023/03/07 02:09:47;;;;;;;;;;;4.90;99.90;;;;;;4972504;28;19980;-68
2023/03/07 02:12:14;;;;;;;;;;;4.80;99.90;;;;;;4972310;28;19926;-68
2023/03/07 02:14:42;;;;;;;;;;;4.80;99.90;;;;;;5013257;28;19925;-68
2023/03/07 02:17:09;;;;;;;;;;;4.80;99.90;;;;;;4981768;28;19934;-68
2023/03/07 02:19:43;;;;;;;;;;;4.80;99.90;;;;;;4968825;28;19927;-68
2023/03/07 02:22:12;;;;;;;;;;;4.80;99.90;;;;;;4968137;28;20009;-69
2023/03/07 02:24:42;;;;;;;;;;;4.80;99.90;;;;;;4968568;28;19927;-66
2023/03/07 02:27:10;;;;;;;;;;;4.80;99.90;;;;;;4966658;28;19930;-67
2023/03/07 02:29:38;;;;;;;;;;;4.70;99.90;;;;;;4974241;28;20005;-67
2023/03/07 02:32:05;;;;;;;;;;;4.80;99.90;;;;;;4980216;28;19956;-68
2023/03/07 02:34:32;;;;;;;;;;;4.70;99.90;;;;;;5024975;28;20362;-68
2023/03/07 02:37:01;;;;;;;;;;;4.70;99.90;;;;;;4979338;28;19935;-68
2023/03/07 02:39:29;;;;;;;;;;;4.70;99.90;;;;;;4983824;28;19933;-68
2023/03/07 02:41:56;;;;;;;;;;;4.70;99.90;;;;;;4984935;28;20037;-68
2023/03/07 02:44:24;;;;;;;;;;;4.70;99.90;;;;;;4979652;28;20021;-68
2023/03/07 02:46:51;;;;;;;;;;;4.70;99.90;;;;;;5006031;28;20269;-68
2023/03/07 02:49:18;;;;;;;;;;;4.70;99.90;;;;;;4997072;28;20405;-68
2023/03/07 02:51:47;;;;;;;;;;;4.70;99.90;;;;;;4968457;28;20436;-68
2023/03/07 02:54:14;;;;;;;;;;;4.70;99.90;;;;;;4976381;28;20026;-68
2023/03/07 02:56:41;;;;;;;;;;;4.70;99.90;;;;;;4979377;28;19967;-69
2023/03/07 02:59:08;;;;;;;;;;;4.70;99.90;;;;;;4987208;28;20507;-67
2023/03/07 03:01:36;;;;;;;;;;;4.70;99.90;;;;;;4987402;28;19927;-67
2023/03/07 03:04:03;;;;;;;;;;;4.70;99.90;;;;;;4987028;28;20016;-68
2023/03/07 03:06:29;;;;;;;;;;;4.70;99.90;;;;;;4984726;28;19925;-68
2023/03/07 03:08:57;;;;;;;;;;;4.70;99.90;;;;;;4974950;28;20033;-68
2023/03/07 03:11:24;;;;;;;;;;;4.70;99.90;;;;;;4973565;28;20032;-68
2023/03/07 03:13:50;;;;;;;;;;;4.70;99.90;;;;;;4978087;28;19969;-68
2023/03/07 03:16:17;;;;;;;;;;;4.80;99.90;;;;;;4991237;28;19940;-68
2023/03/07 03:18:45;;;;;;;;;;;4.80;99.90;;;;;;4987550;28;20301;-68
2023/03/07 03:21:13;;;;;;;;;;;4.80;99.90;;;;;;4984774;28;19969;-68
2023/03/07 03:23:40;;;;;;;;;;;4.80;99.90;;;;;;4989413;28;19926;-68
2023/03/07 03:26:10;;;;;;;;;;;4.80;99.90;;;;;;4986352;28;19925;-69
2023/03/07 03:28:37;;;;;;;;;;;4.80;99.90;;;;;;4983021;28;19926;-68
2023/03/07 03:31:05;;;;;;;;;;;4.80;99.90;;;;;;4973874;28;19930;-68
2023/03/07 03:33:32;;;;;;;;;;;4.80;99.90;;;;;;4977241;28;20388;-68
2023/03/07 03:36:05;;;;;;;;;;;4.80;99.90;;;;;;4975096;28;19932;-68
2023/03/07 03:38:32;;;;;;;;;;;4.80;99.90;;;;;;4988163;28;19961;-68
2023/03/07 03:40:59;;;;;;;;;;;4.80;99.90;;;;;;5013587;28;19932;-69
2023/03/07 03:43:25;;;;;;;;;;;4.80;99.90;;;;;;4982167;28;19930;-69
2023/03/07 03:45:55;;;;;;;;;;;4.80;99.90;;;;;;4977610;28;19957;-68
2023/03/07 03:48:22;;;;;;;;;;;4.80;99.90;;;;;;4983568;28;19932;-68
2023/03/07 03:50:49;;;;;;;;;;;4.80;99.90;;;;;;4976559;28;20412;-68
2023/03/07 03:53:17;;;;;;;;;;;4.80;99.90;;;;;;4979591;28;20304;-69
2023/03/07 03:55:44;;;;;;;;;;;4.80;99.90;;;;;;5007882;28;20351;-68
2023/03/07 03:58:11;;;;;;;;;;;4.80;99.90;;;;;;4974966;28;20029;-69
2023/03/07 04:00:37;;;;;;;;;;;4.80;99.90;;;;;;4971181;28;19934;-69
2023/03/07 04:03:04;;;;;;;;;;;4.80;99.90;;;;;;4969656;28;20390;-69
2023/03/07 04:05:32;;;;;;;;;;;4.80;99.90;;;;;;4982324;28;20019;-68
2023/03/07 04:07:59;;;;;;;;;;;4.90;99.90;;;;;;4988873;28;19933;-68
2023/03/07 04:10:27;;;;;;;;;;;4.80;99.90;;;;;;5004568;28;19941;-69
2023/03/07 04:12:54;;;;;;;;;;;4.80;99.90;;;;;;4998105;28;19935;-68
2023/03/07 04:15:21;;;;;;;;;;;4.90;99.90;;;;;;5014313;28;19947;-68
2023/03/07 04:17:48;;;;;;;;;;;4.90;99.90;;;;;;4979074;28;19984;-68
2023/03/07 04:20:16;;;;;;;;;;;4.80;99.90;;;;;;5002726;28;19988;-68
2023/03/07 04:22:43;;;;;;;;;;;4.80;99.90;;;;;;4982451;28;19926;-68
2023/03/07 04:25:09;;;;;;;;;;;4.80;99.90;;;;;;5027065;28;20961;-67
2023/03/07 04:27:37;;;;;;;;;;;4.80;99.90;;;;;;4986334;28;19933;-68
2023/03/07 04:30:05;;;;;;;;;;;4.80;99.90;;;;;;4977453;28;20643;-67
2023/03/07 04:32:31;;;;;;;;;;;4.70;99.90;;;;;;4984525;28;20029;-68
2023/03/07 04:34:58;;;;;;;;;;;4.70;99.90;;;;;;4981932;28;19980;-67
2023/03/07 04:37:25;;;;;;;;;;;4.70;99.90;;;;;;4977147;28;20017;-67
2023/03/07 04:39:51;;;;;;;;;;;4.70;99.90;;;;;;4986515;28;19925;-67
2023/03/07 04:42:18;;;;;;;;;;;4.70;99.90;;;;;;4976542;28;19927;-67
2023/03/07 04:44:46;;;;;;;;;;;4.70;99.90;;;;;;4965336;28;20009;-68
2023/03/07 04:47:13;;;;;;;;;;;4.70;99.90;;;;;;4978580;28;19930;-68
2023/03/07 04:49:40;;;;;;;;;;;4.70;99.90;;;;;;4990164;28;19941;-68
2023/03/07 04:52:06;;;;;;;;;;;4.70;99.90;;;;;;4979120;28;19932;-68
2023/03/07 04:54:33;;;;;;;;;;;4.70;99.90;;;;;;4978470;28;20009;-68
2023/03/07 04:57:00;;;;;;;;;;;4.70;99.90;;;;;;4968547;28;21041;-68
2023/03/07 04:59:26;;;;;;;;;;;4.70;99.90;;;;;;4974070;28;19984;-69
2023/03/07 05:01:55;;;;;;;;;;;4.70;99.90;;;;;;4988318;28;19979;-69
2023/03/07 05:04:21;;;;;;;;;;;4.70;99.90;;;;;;4967650;28;20013;-68
2023/03/07 05:06:50;;;;;;;;;;;4.70;99.90;;;;;;4996323;28;20026;-68
2023/03/07 05:09:16;;;;;;;;;;;4.70;99.90;;;;;;4996697;28;19974;-68
2023/03/07 05:11:43;;;;;;;;;;;4.70;99.90;;;;;;4988390;28;19965;-68
2023/03/07 05:14:10;;;;;;;;;;;4.70;99.90;;;;;;4973024;28;20013;-68
2023/03/07 05:16:36;;;;;;;;;;;4.60;99.90;;;;;;4971293;28;19933;-69
2023/03/07 05:19:05;;;;;;;;;;;4.60;99.90;;;;;;4969366;28;19932;-69
2023/03/07 05:21:32;;;;;;;;;;;4.60;99.90;;;;;;4982898;28;19925;-68
2023/03/07 05:23:59;;;;;;;;;;;4.60;99.90;;;;;;4978247;28;19929;-67
2023/03/07 05:26:26;;;;;;;;;;;4.60;99.90;;;;;;4985212;28;20020;-68
2023/03/07 05:28:52;;;;;;;;;;;4.60;99.90;;;;;;5003365;28;19930;-68
2023/03/07 05:31:19;;;;;;;;;;;4.60;99.90;;;;;;4974229;28;19932;-68
2023/03/07 05:33:46;;;;;;;;;;;4.60;99.90;;;;;;4983785;28;19930;-68
2023/03/07 05:36:14;;;;;;;;;;;4.60;99.90;;;;;;4969734;28;20021;-69
2023/03/07 05:38:40;;;;;;;;;;;4.60;99.90;;;;;;4968636;28;20308;-69
2023/03/07 05:41:07;;;;;;;;;;;4.60;99.90;;;;;;4970973;28;19926;-69
2023/03/07 05:43:34;;;;;;;;;;;4.60;99.90;;;;;;4976194;28;19926;-69
2023/03/07 05:46:01;;;;;;;;;;;4.60;99.90;;;;;;4961936;28;19934;-69
2023/03/07 05:48:27;;;;;;;;;;;4.60;99.90;;;;;;4965307;28;19927;-69
2023/03/07 05:50:54;;;;;;;;;;;4.70;99.90;;;;;;4964533;28;19930;-69
2023/03/07 05:53:22;;;;;;;;;;;4.70;99.90;;;;;;4966206;28;19991;-69
2023/03/07 05:55:49;;;;;;;;;;;4.70;99.90;;;;;;4970234;28;19926;-69
2023/03/07 05:58:16;;;;;;;;;;;4.70;99.90;;;;;;4964576;28;20005;-69
2023/03/07 06:00:43;;;;;;;;;;;4.70;99.90;;;;;;4974008;28;19926;-68
2023/03/07 06:03:09;;;;;;;;;;;4.80;99.90;;;;;;4963411;28;19926;-69
2023/03/07 06:05:36;;;;;;;;;;;4.80;99.90;;;;;;4972219;28;19929;-69
2023/03/07 06:08:03;;;;;;;;;;;4.80;99.90;;;;;;4964057;28;20351;-69
2023/03/07 06:10:32;;;;;;;;;;;4.80;99.90;;;;;;4957410;28;19941;-67
2023/03/07 06:12:58;;;;;;;;;;;4.90;99.90;;;;;;4957251;28;20012;-67
2023/03/07 06:15:25;;;;;;;;;;;4.90;99.90;;;;;;4968732;28;19968;-67
2023/03/07 06:17:52;;;;;;;;;;;4.90;99.90;;;;;;4969725;28;20693;-67
2023/03/07 06:20:20;;;;;;;;;;;4.80;99.90;;;;;;4971683;28;19926;-67
2023/03/07 06:22:47;;;;;;;;;;;4.80;99.90;;;;;;4971662;28;20037;-67
2023/03/07 06:25:14;;;;;;;;;;;4.80;99.90;;;;;;4968187;28;19926;-68
2023/03/07 06:27:42;;;;;;;;;;;4.80;99.90;;;;;;4964946;28;19934;-68
2023/03/07 06:30:09;;;;;;;;;;;4.80;99.90;;;;;;4969587;28;19925;-68
2023/03/07 06:32:36;;;;;;;;;;;4.80;99.90;;;;;;4965344;28;20028;-68
2023/03/07 06:35:03;;;;;;;;;;;4.70;99.90;;;;;;4969365;28;20297;-68
2023/03/07 06:37:30;;;;;;;;;;;4.70;99.90;;;;;;4966071;28;19931;-68
2023/03/07 06:40:04;;;;;;;;;;;4.60;99.90;;;;;;4961098;28;19926;-68
2023/03/07 06:42:31;;;;;;;;;;;4.70;99.90;;;;;;4966924;28;20051;-69
2023/03/07 06:44:59;;;;;;;;;;;4.70;99.90;;;;;;4968919;28;19926;-67
2023/03/07 06:47:26;;;;;;;;;;;4.70;99.90;;;;;;4965613;28;20293;-67
2023/03/07 06:49:54;;;;;;;;;;;4.60;99.90;;;;;;4970236;28;20020;-68
2023/03/07 06:52:21;;;;;;;;;;;4.70;99.90;;;;;;4966602;28;19965;-68
2023/03/07 06:54:48;;;;;;;;;;;4.70;99.90;;;;;;4964063;28;19934;-68
2023/03/07 06:57:15;;;;;;;;;;;4.70;99.90;;;;;;4974098;28;20360;-68
2023/03/07 06:59:41;;;;;;;;;;;4.80;99.90;;;;;;4967400;28;19996;-68
2023/03/07 07:02:11;;;;;;;;;;;4.80;99.90;;;;;;4967310;28;20409;-67
2023/03/07 07:04:38;;;;;;;;;;;4.80;99.90;;;;;;4973315;28;19926;-67
2023/03/07 07:07:05;;;;;;;;;;;4.80;99.90;;;;;;4963950;28;19926;-67
2023/03/07 07:09:33;;;;;;;;;;;4.80;99.90;;;;;;4963984;28;19934;-65
2023/03/07 07:11:59;;;;;;;;;;;4.90;99.90;;;;;;4963439;28;19930;-66
2023/03/07 07:14:26;;;;;;;;;;;4.90;99.90;;;;;;4969876;28;20313;-68
2023/03/07 07:16:53;;;;;;;;;;;4.90;99.90;;;;;;4967283;28;20389;-67
2023/03/07 07:19:21;;;;;;;;;;;4.90;99.90;;;;;;4964032;28;20023;-66
2023/03/07 07:21:48;;;;;;;;;;;4.90;99.90;;;;;;4972482;28;19931;-65
2023/03/07 07:24:15;;;;;;;;;;;4.90;99.90;;;;;;5058546;28;20018;-66
2023/03/07 07:26:42;;;;;;;;;;;4.90;99.90;;;;;;4980952;28;20013;-70
2023/03/07 07:29:08;;;;;;;;;;;5.00;99.90;;;;;;4977229;28;19926;-69
2023/03/07 07:31:35;;;;;;;;;;;5.00;99.90;;;;;;4970702;28;20021;-69
2023/03/07 07:34:02;;;;;;;;;;;5.00;99.90;;;;;;4960609;28;19926;-69
2023/03/07 07:36:31;;;;;;;;;;;5.00;99.90;;;;;;4966217;28;19926;-67
2023/03/07 07:38:58;;;;;;;;;;;5.00;99.90;;;;;;4965194;28;20528;-68
2023/03/07 07:41:24;;;;;;;;;;;5.00;99.90;;;;;;4964184;28;19933;-67
2023/03/07 07:43:52;;;;;;;;;;;5.10;99.90;;;;;;4965370;28;19933;-67
2023/03/07 07:46:19;;;;;;;;;;;5.10;99.90;;;;;;4975443;28;19949;-67
2023/03/07 07:48:46;;;;;;;;;;;5.20;99.90;;;;;;4985086;28;20024;-67
2023/03/07 07:51:13;;;;;;;;;;;5.20;99.90;;;;;;4965561;28;19933;-68
2023/03/07 07:53:41;;;;;;;;;;;5.20;99.90;;;;;;4966304;28;19946;-68
2023/03/07 07:56:08;;;;;;;;;;;5.20;99.90;;;;;;4973391;28;20032;-67
2023/03/07 07:58:35;;;;;;;;;;;5.20;99.90;;;;;;4974708;28;19930;-67
2023/03/07 08:01:11;;;;;;;;;;;5.20;99.90;;;;;;4971294;28;20434;-66
2023/03/07 08:03:38;;;;;;;;;;;5.10;99.90;;;;;;4971167;28;19933;-66
2023/03/07 08:06:05;;;;;;;;;;;5.10;99.90;;;;;;4970543;28;20011;-67
2023/03/07 08:08:31;;;;;;;;;;;5.00;99.90;;;;;;4970257;28;19926;-68
2023/03/07 08:10:59;;;;;;;;;;;5.10;99.90;;;;;;4963776;28;19934;-67
2023/03/07 08:13:27;;;;;;;;;;;5.10;99.90;;;;;;4968019;28;20385;-67
2023/03/07 08:15:54;;;;;;;;;;;5.00;99.90;;;;;;4959495;28;19938;-67
2023/03/07 08:18:20;;;;;;;;;;;5.00;99.90;;;;;;4968473;28;20292;-67
2023/03/07 08:20:47;;;;;;;;;;;5.10;99.90;;;;;;4967061;28;19935;-67
2023/03/07 08:23:14;;;;;;;;;;;5.10;99.90;;;;;;4967552;28;19984;-67
2023/03/07 08:25:41;;;;;;;;;;;5.10;99.90;;;;;;4967284;28;19926;-67
2023/03/07 08:28:09;;;;;;;;;;;5.10;99.90;;;;;;4964871;28;20484;-64
2023/03/07 08:30:38;;;;;;;;;;;5.00;99.90;;;;;;4965073;28;19937;-64
2023/03/07 08:33:06;;;;;;;;;;;5.00;99.90;;;;;;4963368;28;19930;-64
2023/03/07 08:35:33;;;;;;;;;;;5.10;99.90;;;;;;4967516;28;19946;-64
2023/03/07 08:37:59;;;;;;;;;;;5.00;99.90;;;;;;4971441;28;19934;-68
2023/03/07 08:40:27;;;;;;;;;;;5.10;99.90;;;;;;4961986;28;20312;-67
2023/03/07 08:42:54;;;;;;;;;;;5.10;99.90;;;;;;4963684;28;19980;-67
2023/03/07 08:45:26;;;;;;;;;;;5.10;99.90;;;;;;4966727;28;20381;-67
2023/03/07 08:47:53;;;;;;;;;;;5.20;99.90;;;;;;4974333;28;19932;-69
2023/03/07 08:50:21;;;;;;;;;;;5.20;99.90;;;;;;4966356;28;19926;-69
2023/03/07 08:52:48;;;;;;;;;;;5.30;99.90;;;;;;4967143;28;19930;-68
2023/03/07 08:55:15;;;;;;;;;;;5.30;99.90;;;;;;4970560;28;19934;-67
2023/03/07 08:57:44;;;;;;;;;;;5.30;99.90;;;;;;4968936;28;19930;-68
2023/03/07 09:00:11;;;;;;;;;;;5.30;99.90;;;;;;4962171;28;20421;-68
2023/03/07 09:02:39;;;;;;;;;;;5.30;99.90;;;;;;4961519;28;19926;-68
2023/03/07 09:05:06;;;;;;;;;;;5.30;99.90;;;;;;4965118;28;20017;-68
2023/03/07 09:07:33;;;;;;;;;;;5.30;99.90;;;;;;4968561;28;19927;-68
2023/03/07 09:10:00;;;;;;;;;;;5.30;99.90;;;;;;4963518;28;20009;-68
2023/03/07 09:12:26;;;;;;;;;;;5.30;99.90;;;;;;4967152;28;19997;-67
2023/03/07 09:14:53;;;;;;;;;;;5.30;99.90;;;;;;4965813;28;19932;-69
2023/03/07 09:17:20;;;;;;;;;;;5.30;99.90;;;;;;4963755;28;19939;-69
2023/03/07 09:19:51;;;;;;;;;;;5.30;99.90;;;;;;4988069;22;19932;-69
2023/03/07 09:22:18;;;;;;;;;;;5.30;99.90;;;;;;4962441;28;20017;-66
2023/03/07 09:24:45;;;;;;;;;;;5.20;99.90;;;;;;4965071;28;19926;-67
2023/03/07 09:27:12;;;;;;;;;;;5.20;99.90;;;;;;4983461;28;19926;-67
2023/03/07 09:29:39;;;;;;;;;;;5.10;99.90;;;;;;4979300;28;19934;-67
2023/03/07 09:32:05;;;;;;;;;;;5.00;99.90;;;;;;4958503;28;19930;-67
2023/03/07 09:34:32;;;;;;;;;;;5.00;99.90;;;;;;4953812;28;19926;-67
2023/03/07 09:37:01;;;;;;;;;;;5.10;99.90;;;;;;4966688;28;19962;-68
2023/03/07 09:39:27;;;;;;;;;;;5.10;99.90;;;;;;4967314;28;19933;-66
2023/03/07 09:41:55;;;;;;;;;;;5.10;99.90;;;;;;4955906;28;20013;-66
2023/03/07 09:44:29;;;;;;;;;;;5.10;99.90;;;;;;4958354;28;20016;-66
2023/03/07 09:47:03;;;;;;;;;;;5.10;99.90;;;;;;4960534;28;19927;-67
2023/03/07 09:49:32;;;;;;;;;;;5.20;99.90;;;;;;4958252;28;20041;-65
2023/03/07 09:52:00;;;;;;;;;;;5.30;99.90;;;;;;4965941;22;20305;-67
2023/03/07 09:54:32;;;;;;;;;;;5.30;99.90;;;;;;4966593;28;20025;-66
2023/03/07 09:56:59;;;;;;;;;;;5.40;99.90;;;;;;4965350;28;20024;-66
2023/03/07 09:59:33;;;;;;;;;;;5.40;99.90;;;;;;4968694;28;19979;-66
2023/03/07 10:02:04;;;;;;;;;;;5.40;99.90;;;;;;4966750;28;19934;-66
2023/03/07 10:04:34;;;;;;;;;;;5.40;99.90;;;;;;4962611;28;19939;-68
2023/03/07 10:07:02;;;;;;;;;;;5.30;99.90;;;;;;4956750;28;20437;-69
2023/03/07 10:09:30;;;;;;;;;;;5.30;99.90;;;;;;4969970;28;20076;-69
2023/03/07 10:12:04;;;;;;;;;;;5.40;99.90;;;;;;4962966;28;20101;-67
2023/03/07 10:14:41;;;;;;;;;;;5.50;99.90;;;;;;4973376;28;20369;-69
2023/03/07 10:17:13;;;;;;;;;;;5.40;99.90;;;;;;4953483;28;20028;-69
2023/03/07 10:19:43;;;;;;;;;;;5.40;99.90;;;;;;4971176;28;19961;-66
2023/03/07 10:22:17;;;;;;;;;;;5.50;99.90;;;;;;4956585;28;19965;-67
2023/03/07 10:24:52;;;;;;;;;;;5.50;99.90;;;;;;4957284;28;19926;-68
2023/03/07 10:27:22;;;;;;;;;;;5.50;99.90;;;;;;4950421;28;19938;-68
2023/03/07 10:29:50;;;;;;;;;;;5.50;99.90;;;;;;4971073;28;19937;-66
2023/03/07 10:32:21;;;;;;;;;;;5.60;99.90;;;;;;4966613;28;19926;-67
2023/03/07 10:34:52;;;;;;;;;;;5.40;99.90;;;;;;4955377;28;20020;-67
2023/03/07 10:37:20;;;;;;;;;;;5.40;99.90;;;;;;4955816;28;20029;-69
2023/03/07 10:39:52;;;;;;;;;;;5.50;99.90;;;;;;4959243;28;20348;-66
2023/03/07 10:42:20;;;;;;;;;;;5.30;99.90;;;;;;4956318;28;20008;-66
2023/03/07 10:44:48;;;;;;;;;;;5.10;99.90;;;;;;4953483;28;20351;-66
2023/03/07 10:47:18;;;;;;;;;;;5.10;99.90;;;;;;4955784;28;19934;-66
2023/03/07 10:49:46;;;;;;;;;;;5.00;99.90;;;;;;4963522;28;19949;-67
2023/03/07 10:52:18;;;;;;;;;;;4.90;99.90;;;;;;4956839;28;19934;-67
2023/03/07 10:54:45;;;;;;;;;;;4.90;99.90;;;;;;4962677;28;19930;-68
2023/03/07 10:57:14;;;;;;;;;;;4.90;99.90;;;;;;4962854;28;19934;-66
2023/03/07 10:59:43;;;;;;;;;;;5.00;99.90;;;;;;4977471;28;20014;-68
2023/03/07 11:02:29;;;;;;;;;;;5.10;99.90;;;;;;4979228;22;19930;-67
2023/03/07 11:04:56;;;;;;;;;;;5.30;99.90;;;;;;4980253;28;20388;-66
2023/03/07 11:07:26;;;;;;;;;;;5.30;99.90;;;;;;4967202;28;19930;-67
2023/03/07 11:09:53;;;;;;;;;;;5.30;99.90;;;;;;4968917;28;19937;-68
2023/03/07 11:12:22;;;;;;;;;;;5.40;99.90;;;;;;4970201;28;20441;-67
2023/03/07 11:14:50;;;;;;;;;;;5.40;99.90;;;;;;4969600;28;19934;-67
2023/03/07 11:17:18;;;;;;;;;;;5.40;99.90;;;;;;4960416;28;20278;-68
2023/03/07 11:19:46;;;;;;;;;;;5.40;99.90;;;;;;4967124;28;19969;-67
2023/03/07 11:22:20;;;;;;;;;;;5.40;99.90;;;;;;4973181;22;20033;-68
2023/03/07 11:24:52;;;;;;;;;;;5.40;99.90;;;;;;4954456;28;19958;-67
2023/03/07 11:27:24;;;;;;;;;;;5.50;99.90;;;;;;4970351;28;20031;-67
2023/03/07 11:30:06;;;;;;;;;;;5.40;99.90;;;;;;4960562;28;19992;-67
2023/03/07 11:32:34;;;;;;;;;;;5.40;99.90;;;;;;4968088;28;19930;-68
2023/03/07 11:35:04;;;;;;;;;;;5.40;99.90;;;;;;4961951;28;19969;-68
2023/03/07 11:37:33;;;;;;;;;;;5.40;99.90;;;;;;4953542;28;20032;-69
2023/03/07 11:40:04;;;;;;;;;;;5.40;99.90;;;;;;4954813;28;20299;-68
2023/03/07 11:42:33;;;;;;;;;;;5.40;99.90;;;;;;4963126;28;20432;-67
2023/03/07 11:45:03;;;;;;;;;;;5.30;99.90;;;;;;4960826;28;19926;-68
2023/03/07 11:47:33;;;;;;;;;;;5.40;99.90;;;;;;4965197;28;19927;-68
2023/03/07 11:50:05;;;;;;;;;;;5.40;99.90;;;;;;4955651;28;19926;-69
2023/03/07 11:52:43;;;;;;;;;;;5.60;99.90;;;;;;4957527;28;19926;-68
2023/03/07 11:55:18;;;;;;;;;;;5.70;99.90;;;;;;4953661;28;20009;-68
2023/03/07 11:57:53;;;;;;;;;;;5.80;99.90;;;;;;4957321;28;20027;-67
2023/03/07 12:00:32;;;;;;;;;;;5.70;99.90;;;;;;4960249;28;19926;-67
2023/03/07 12:03:13;;;;;;;;;;;5.70;99.90;;;;;;4956456;28;20021;-69
2023/03/07 12:05:46;;;;;;;;;;;5.80;99.90;;;;;;4960685;28;19930;-68
2023/03/07 12:08:27;;;;;;;;;;;5.80;99.90;;;;;;4958950;28;19934;-68
2023/03/07 12:10:59;;;;;;;;;;;5.80;99.90;;;;;;4959540;28;19929;-67
2023/03/07 12:13:35;;;;;;;;;;;5.80;99.90;;;;;;4964962;28;20353;-68
2023/03/07 12:16:05;;;;;;;;;;;5.60;99.90;;;;;;4966111;28;19930;-67
2023/03/07 12:18:43;;;;;;;;;;;5.60;99.90;;;;;;4969415;28;19926;-70
2023/03/07 12:21:19;;;;;;;;;;;5.70;99.90;;;;;;4954425;28;20032;-68
2023/03/07 12:23:47;;;;;;;;;;;5.60;99.90;;;;;;4961378;28;19926;-69
2023/03/07 12:26:17;;;;;;;;;;;5.60;99.90;;;;;;4965375;28;19950;-69
2023/03/07 12:28:47;;;;;;;;;;;5.60;99.90;;;;;;4965348;28;19926;-69
2023/03/07 12:31:16;;;;;;;;;;;5.60;99.90;;;;;;4962571;28;19930;-68
2023/03/07 12:33:49;;;;;;;;;;;5.60;99.90;;;;;;4969855;28;19926;-68
2023/03/07 12:36:19;;;;;;;;;;;5.60;99.90;;;;;;4959144;28;19926;-67
2023/03/07 12:38:49;;;;;;;;;;;5.70;99.90;;;;;;4965801;28;19926;-67
2023/03/07 12:41:21;;;;;;;;;;;5.70;99.90;;;;;;4966324;28;19971;-66
2023/03/07 12:43:52;;;;;;;;;;;5.80;99.90;;;;;;4967097;28;19958;-66
2023/03/07 12:46:23;;;;;;;;;;;5.90;99.90;;;;;;4960533;28;20016;-68
2023/03/07 12:48:54;;;;;;;;;;;5.90;99.90;;;;;;4958949;28;20028;-67
2023/03/07 12:51:22;;;;;;;;;;;5.70;99.90;;;;;;4961751;28;19931;-67
2023/03/07 12:53:52;;;;;;;;;;;5.70;99.90;;;;;;4954042;28;19930;-67
2023/03/07 12:56:20;;;;;;;;;;;5.70;99.90;;;;;;4955456;28;19964;-67
2023/03/07 12:58:49;;;;;;;;;;;5.60;99.90;;;;;;4963159;28;19980;-67
2023/03/07 13:01:20;;;;;;;;;;;5.60;99.90;;;;;;4966489;28;20019;-67
2023/03/07 13:03:51;;;;;;;;;;;5.60;99.90;;;;;;4989659;28;19931;-67
2023/03/07 13:06:19;;;;;;;;;;;5.60;99.90;;;;;;4963192;28;19974;-68
2023/03/07 13:08:47;;;;;;;;;;;5.80;99.90;;;;;;4960255;28;19980;-69
2023/03/07 13:11:18;;;;;;;;;;;5.60;99.90;;;;;;4956301;28;19927;-69
2023/03/07 13:13:50;;;;;;;;;;;5.60;99.90;;;;;;4960065;28;19926;-68
2023/03/07 13:16:35;;;;;;;;;;;5.70;99.90;;;;;;4956416;28;19957;-69
2023/03/07 13:19:20;;;;;;;;;;;5.90;99.90;;;;;;4951300;28;19931;-68
2023/03/07 13:21:47;;;;;;;;;;;5.80;99.90;;;;;;4958447;28;19926;-68
2023/03/07 13:24:34;;;;;;;;;;;5.90;99.90;;;;;;4961982;28;19934;-70
2023/03/07 13:27:01;;;;;;;;;;;5.90;99.90;;;;;;4955819;28;19927;-69
2023/03/07 13:29:51;;;;;;;;;;;5.70;99.90;;;;;;4956179;28;19999;-68
2023/03/07 13:32:37;;;;;;;;;;;5.60;99.90;;;;;;4959548;28;19930;-69
2023/03/07 13:35:08;;;;;;;;;;;5.70;99.90;;;;;;4951127;28;20318;-69
2023/03/07 13:37:48;;;;;;;;;;;5.80;99.90;;;;;;4956412;28;19940;-68
2023/03/07 13:40:45;;;;;;;;;;;5.90;99.90;;;;;;4967863;28;19925;-70
2023/03/07 13:43:30;;;;;;;;;;;5.90;99.90;;;;;;4952820;28;19932;-69
2023/03/07 13:45:57;;;;;;;;;;;6.00;99.90;;;;;;4965742;28;19926;-68
2023/03/07 13:48:42;;;;;;;;;;;6.10;99.90;;;;;;4951287;28;20360;-69
2023/03/07 13:51:11;;;;;;;;;;;6.00;99.90;;;;;;4957477;28;20308;-68
2023/03/07 13:53:42;;;;;;;;;;;6.00;99.90;;;;;;4965866;28;19926;-70
2023/03/07 13:56:10;;;;;;;;;;;5.90;99.90;;;;;;4963645;28;20389;-70
2023/03/07 13:58:38;;;;;;;;;;;6.00;99.90;;;;;;4959430;28;19966;-69
2023/03/07 14:01:12;;;;;;;;;;;6.00;99.90;;;;;;4959502;28;19932;-70
2023/03/07 14:03:40;;;;;;;;;;;6.00;99.90;;;;;;4969393;28;19973;-70
2023/03/07 14:06:09;;;;;;;;;;;6.10;99.90;;;;;;4960138;28;19926;-69
2023/03/07 14:08:38;;;;;;;;;;;6.10;99.90;;;;;;4950441;28;20028;-69
2023/03/07 14:11:06;;;;;;;;;;;5.90;99.90;;;;;;4966713;28;20315;-70
2023/03/07 14:13:52;;;;;;;;;;;5.90;99.90;;;;;;4955108;28;20009;-70
2023/03/07 14:16:26;;;;;;;;;;;5.90;99.90;;;;;;4957195;28;19934;-70
2023/03/07 14:19:00;;;;;;;;;;;5.90;99.90;;;;;;4965021;28;20357;-69
2023/03/07 14:21:34;;;;;;;;;;;6.10;99.90;;;;;;4961861;28;20025;-68
2023/03/07 14:24:16;;;;;;;;;;;6.10;99.90;;;;;;4950398;28;19933;-69
2023/03/07 14:26:46;;;;;;;;;;;6.10;99.90;;;;;;4957779;28;19926;-68
2023/03/07 14:29:15;;;;;;;;;;;6.10;99.90;;;;;;4964654;28;19981;-70
2023/03/07 14:31:42;;;;;;;;;;;6.10;99.90;;;;;;4966114;28;19930;-69
2023/03/07 14:34:26;;;;;;;;;;;6.20;99.90;;;;;;4988055;28;19926;-68
2023/03/07 14:36:54;;;;;;;;;;;5.90;99.90;;;;;;4961917;28;21033;-69
2023/03/07 14:39:21;;;;;;;;;;;5.80;99.90;;;;;;4954545;28;19981;-68
2023/03/07 14:41:52;;;;;;;;;;;5.70;99.90;;;;;;4965534;28;19976;-68